Sanmanyoshi7 — JD4004 — position and weather

sailwx.info

Track history (hours):
 
Tides and Currents Weather Stations Pressure Air Temp Water Temp Dewpoint Dewpoint Depression Visibility Wind Speed Wind Dir Waves Ship Positions

Sanmanyoshi7

Last reported at 2018-May-16 01:42 UTC. Time now 2018-May-21 12:50 UTC.
Position N 34°36' E 134°16'.

Length 61 m; draft 3.5 m.

Type: Cargo ship. MMSI: 431007715.

Date/timePositionNaut miles runAvg speedWind from/ knotsBaromVisibWave heightAir tempDewpointWater temp
2018-May-16 01:42N 34°36' E 134°16'1211.9
2018-May-16 00:42N 34°41' E 134°30'212.2
2018-May-16 00:30N 34°42' E 134°32'612.0
2018-May-16 00:00N 34°42' E 134°40'7 1.6
2018-May-15 19:30N 34°43' E 134°48'2 0.4
2018-May-15 14:20N 34°43' E 134°51'0 0.0
2018-May-15 14:00N 34°43' E 134°51'0 0.0
2018-May-15 13:30N 34°43' E 134°51'0 0.0
2018-May-15 13:00N 34°43' E 134°51'0 0.0
2018-May-15 12:30N 34°43' E 134°51'0 0.0
2018-May-15 11:58N 34°43' E 134°51'0 0.0
2018-May-15 11:30N 34°43' E 134°51'0 0.0
2018-May-15 11:00N 34°43' E 134°51'0 0.0
2018-May-15 10:30N 34°43' E 134°51'0 0.0
2018-May-15 09:59N 34°43' E 134°51'0 0.0
2018-May-15 09:30N 34°43' E 134°51'0 0.0
2018-May-15 09:00N 34°43' E 134°51'0 0.0
2018-May-15 08:30N 34°43' E 134°51'0 0.0
2018-May-15 08:00N 34°43' E 134°51'1 1.8
2018-May-15 07:30N 34°42' E 134°50'510.1
2018-May-15 07:00N 34°38' E 134°54'611.2
2018-May-15 06:30N 34°38' E 135°01'5 9.2
2018-May-15 06:01N 34°37' E 135°06'611.6
2018-May-15 05:30N 34°37' E 135°13'611.3
2018-May-15 05:00N 34°38' E 135°20'5 9.5
2018-May-15 04:31N 34°40' E 135°26'0 0.0
2018-May-15 04:00N 34°40' E 135°26'0 0.0
2018-May-15 03:30N 34°40' E 135°26'0 0.0
2018-May-15 03:00N 34°40' E 135°26'0 0.0
2018-May-15 02:30N 34°40' E 135°26'0 0.0
2018-May-15 02:00N 34°40' E 135°26'0 0.0
2018-May-15 01:30N 34°40' E 135°26'1 2.2
2018-May-15 01:00N 34°39' E 135°25'2 3.9
2018-May-15 00:30N 34°40' E 135°22'0 0.0
2018-May-15 00:00N 34°40' E 135°22'0 0.0
2018-May-14 23:30N 34°40' E 135°22'0 0.0
2018-May-14 23:00N 34°40' E 135°22'0 0.0
2018-May-14 22:30N 34°40' E 135°22'0 0.0
2018-May-14 22:00N 34°40' E 135°22'0 0.0
2018-May-14 21:30N 34°40' E 135°22'0 0.0
2018-May-14 21:00N 34°40' E 135°22'3 6.7
2018-May-14 20:30N 34°38' E 135°19'510.3
2018-May-14 20:00N 34°36' E 135°13'611.3
2018-May-14 19:30N 34°35' E 135°06'612.4
2018-May-14 19:00N 34°37' E 134°59'612.5
2018-May-14 18:30N 34°34' E 134°52'611.7
2018-May-14 18:00N 34°32' E 134°45'611.5
2018-May-14 17:30N 34°30' E 134°39'611.3
2018-May-14 17:00N 34°28' E 134°33'611.4
2018-May-14 16:30N 34°26' E 134°26'711.4
2018-May-14 15:52N 34°24' E 134°18'412.2
2018-May-14 15:30N 34°24' E 134°12'7811.4
2018-May-14 08:38N 34°10' E 132°39'211.2
2018-May-14 08:30N 34°10' E 132°38'5 9.5
2018-May-14 08:00N 34°12' E 132°32'2 3.5
2018-May-14 07:30N 34°14' E 132°32'0 0.0
2018-May-14 07:00N 34°14' E 132°32'0 0.1
2018-May-14 06:30N 34°14' E 132°32'0 0.0
2018-May-14 06:01N 34°14' E 132°32'0 0.1
2018-May-14 05:31N 34°14' E 132°32'0 0.1
2018-May-14 05:00N 34°14' E 132°32'0 0.0
2018-May-14 04:30N 34°14' E 132°32'0 0.0
2018-May-14 04:00N 34°14' E 132°32'0 0.1
2018-May-14 03:31N 34°14' E 132°32'0 0.1
2018-May-14 03:00N 34°14' E 132°32'0 0.0
2018-May-14 02:31N 34°14' E 132°32'1 2.2
2018-May-14 02:01N 34°15' E 132°33'0 0.0
2018-May-14 01:30N 34°15' E 132°33'0 0.0
2018-May-14 01:00N 34°15' E 132°33'0 0.0
2018-May-14 00:30N 34°15' E 132°33'0 0.0
2018-May-14 00:01N 34°15' E 132°33'0 0.0
2018-May-13 23:31N 34°15' E 132°33'0 0.0
2018-May-13 23:00N 34°15' E 132°33'0 0.0
2018-May-13 22:30N 34°15' E 132°33'0 0.0
2018-May-13 22:00N 34°15' E 132°33'0 0.0
2018-May-13 21:30N 34°15' E 132°33'0 0.0
2018-May-13 21:00N 34°15' E 132°33'0 0.0
2018-May-13 20:30N 34°15' E 132°33'0 0.0
2018-May-13 20:00N 34°15' E 132°33'0 0.0
2018-May-13 19:30N 34°15' E 132°33'0 0.0
2018-May-13 19:01N 34°15' E 132°33'0 0.0
2018-May-13 18:31N 34°15' E 132°33'0 0.0
2018-May-13 17:59N 34°15' E 132°33'0 0.0
2018-May-13 17:30N 34°15' E 132°33'0 0.0
2018-May-13 17:00N 34°15' E 132°33'0 0.0
2018-May-13 16:31N 34°15' E 132°33'0 0.0
2018-May-13 16:00N 34°15' E 132°33'0 0.0
2018-May-13 15:30N 34°15' E 132°33'0 0.0
2018-May-13 15:00N 34°15' E 132°33'0 0.0
2018-May-13 14:30N 34°15' E 132°33'0 0.0
2018-May-13 13:58N 34°15' E 132°33'0 0.0
2018-May-13 13:30N 34°15' E 132°33'0 0.0
2018-May-13 13:01N 34°15' E 132°33'0 0.0
2018-May-13 12:30N 34°15' E 132°33'0 0.0
2018-May-13 12:00N 34°15' E 132°33'0 0.0
2018-May-13 11:30N 34°15' E 132°33'0 0.0
2018-May-13 11:01N 34°15' E 132°33'0 0.0
2018-May-13 10:30N 34°15' E 132°33'0 0.0
2018-May-13 10:00N 34°15' E 132°33'0 0.0
2018-May-13 09:30N 34°15' E 132°33'0 0.0
2018-May-13 09:00N 34°15' E 132°33'0 0.0
2018-May-13 08:30N 34°15' E 132°33'0 0.0
2018-May-13 08:00N 34°15' E 132°33'0 0.0
2018-May-13 07:31N 34°15' E 132°33'0 0.0
2018-May-13 07:00N 34°15' E 132°33'0 0.0
2018-May-13 06:30N 34°15' E 132°33'0 0.0
2018-May-13 06:00N 34°15' E 132°33'0 0.0
2018-May-13 05:30N 34°15' E 132°33'0 0.0
2018-May-13 05:00N 34°15' E 132°33'0 0.0
2018-May-13 04:30N 34°15' E 132°33'0 0.0
2018-May-13 04:01N 34°15' E 132°33'0 0.0
2018-May-13 03:31N 34°15' E 132°33'0 0.0
2018-May-13 03:01N 34°15' E 132°33'0 0.0
2018-May-13 02:31N 34°15' E 132°33'0 0.0
2018-May-13 02:00N 34°15' E 132°33'0 0.0
2018-May-13 01:30N 34°15' E 132°33'0 0.0
2018-May-13 01:00N 34°15' E 132°33'0 0.0
2018-May-13 00:30N 34°15' E 132°33'0 0.0
2018-May-13 00:00N 34°15' E 132°33'0 0.0
2018-May-12 23:31N 34°15' E 132°33'0 0.0
2018-May-12 23:00N 34°15' E 132°33'0 0.0
2018-May-12 22:30N 34°15' E 132°33'0 0.0
2018-May-12 22:00N 34°15' E 132°33'0 0.0
2018-May-12 21:30N 34°15' E 132°33'0 0.0
2018-May-12 21:00N 34°15' E 132°33'0 0.0
2018-May-12 20:30N 34°15' E 132°33'0 0.0
2018-May-12 20:01N 34°15' E 132°33'0 0.0
2018-May-12 19:31N 34°15' E 132°33'0 0.0
2018-May-12 18:59N 34°15' E 132°33'0 0.0
2018-May-12 18:30N 34°15' E 132°33'0 0.0
2018-May-12 18:00N 34°15' E 132°33'0 0.0
2018-May-12 17:30N 34°15' E 132°33'0 0.0
2018-May-12 17:00N 34°15' E 132°33'0 0.0
2018-May-12 16:30N 34°15' E 132°33'0 0.0
2018-May-12 16:01N 34°15' E 132°33'0 0.0
2018-May-12 15:30N 34°15' E 132°33'0 0.0
2018-May-12 15:01N 34°15' E 132°33'0 0.0
2018-May-12 14:30N 34°15' E 132°33'0 0.0
2018-May-12 14:00N 34°15' E 132°33'0 0.0
2018-May-12 13:30N 34°15' E 132°33'0 0.0
2018-May-12 13:00N 34°15' E 132°33'0 0.0
2018-May-12 12:30N 34°15' E 132°33'0 0.0
2018-May-12 12:00N 34°15' E 132°33'0 0.0
2018-May-12 11:31N 34°15' E 132°33'0 0.0
2018-May-12 11:01N 34°15' E 132°33'0 0.0
2018-May-12 10:31N 34°15' E 132°33'0 0.0
2018-May-12 10:01N 34°15' E 132°33'0 0.0
2018-May-12 09:30N 34°15' E 132°33'0 0.0
2018-May-12 09:01N 34°15' E 132°33'0 0.0
2018-May-12 08:31N 34°15' E 132°33'0 0.0
2018-May-12 08:01N 34°15' E 132°33'0 0.0
2018-May-12 07:30N 34°15' E 132°33'0 0.0
2018-May-12 07:01N 34°15' E 132°33'0 0.0
2018-May-12 06:31N 34°15' E 132°33'0 0.0
2018-May-12 06:00N 34°15' E 132°33'0 0.0
2018-May-12 05:30N 34°15' E 132°33'0 0.0
2018-May-12 05:00N 34°15' E 132°33'0 0.0
2018-May-12 04:31N 34°15' E 132°33'0 0.0
2018-May-12 04:00N 34°15' E 132°33'0 0.0
2018-May-12 03:30N 34°15' E 132°33'0 0.0
2018-May-12 03:00N 34°15' E 132°33'0 0.0
2018-May-12 02:30N 34°15' E 132°33'0 0.0
2018-May-12 02:00N 34°15' E 132°33'0 0.0
2018-May-12 01:31N 34°15' E 132°33'0 0.0
2018-May-12 01:00N 34°15' E 132°33'0 0.0
2018-May-12 00:30N 34°15' E 132°33'0 0.0
2018-May-12 00:01N 34°15' E 132°33'0 0.0
2018-May-11 23:30N 34°15' E 132°33'0 0.0
2018-May-11 23:01N 34°15' E 132°33'0 0.0
2018-May-11 22:28N 34°15' E 132°33'0 0.0
2018-May-11 21:59N 34°15' E 132°33'0 0.0
2018-May-11 21:30N 34°15' E 132°33'0 0.0
2018-May-11 21:00N 34°15' E 132°33'0 0.0
2018-May-11 20:31N 34°15' E 132°33'0 0.0
2018-May-11 20:00N 34°15' E 132°33'0 0.0
2018-May-11 19:31N 34°15' E 132°33'0 0.0
2018-May-11 19:00N 34°15' E 132°33'0 0.0
2018-May-11 18:30N 34°15' E 132°33'0 0.0
2018-May-11 18:00N 34°15' E 132°33'0 0.0
2018-May-11 17:30N 34°15' E 132°33'0 0.0
2018-May-11 17:00N 34°15' E 132°33'0 0.0
2018-May-11 16:30N 34°15' E 132°33'0 0.0
2018-May-11 16:00N 34°15' E 132°33'0 0.0
2018-May-11 15:30N 34°15' E 132°33'0 0.0
2018-May-11 15:00N 34°15' E 132°33'0 0.0
2018-May-11 14:30N 34°15' E 132°33'0 0.0
2018-May-11 13:58N 34°15' E 132°33'0 0.0
2018-May-11 13:31N 34°15' E 132°33'0 0.0
2018-May-11 13:00N 34°15' E 132°33'0 0.0
2018-May-11 12:30N 34°15' E 132°33'0 0.0
2018-May-11 12:01N 34°15' E 132°33'0 0.0
2018-May-11 11:31N 34°15' E 132°33'0 0.0
2018-May-11 11:00N 34°15' E 132°33'0 0.0
2018-May-11 10:31N 34°15' E 132°33'0 0.0
2018-May-11 10:01N 34°15' E 132°33'0 0.0
2018-May-11 09:31N 34°15' E 132°33'0 0.0
2018-May-11 09:00N 34°15' E 132°33'0 0.0
2018-May-11 08:30N 34°15' E 132°33'0 0.0
2018-May-11 08:00N 34°15' E 132°33'0 0.0
2018-May-11 07:30N 34°15' E 132°33'0 0.0
2018-May-11 07:00N 34°15' E 132°33'0 0.0
2018-May-11 06:30N 34°15' E 132°33'4 8.3
2018-May-11 06:00N 34°11' E 132°30'610.6
2018-May-11 05:26N 34°06' E 132°26'511.8
2018-May-11 05:00N 34°03' E 132°20'611.7
2018-May-11 04:30N 34°00' E 132°15'710.9
2018-May-11 03:52N 33°54' E 132°10'511.1
2018-May-11 03:27N 33°50' E 132°09'510.7
2018-May-11 03:01N 33°52' E 132°04'611.5
2018-May-11 02:30N 33°54' E 131°57'611.8
2018-May-11 01:57N 33°55' E 131°50'511.7
2018-May-11 01:30N 33°57' E 131°44'611.9
2018-May-11 01:00N 33°59' E 131°37'3 6.1
2018-May-11 00:28N 34°01' E 131°34'0 0.0
2018-May-10 23:48N 34°01' E 131°34'0 0.0
2018-May-10 23:21N 34°01' E 131°34'0 0.0
2018-May-10 22:57N 34°01' E 131°34'0 0.0
2018-May-10 22:30N 34°01' E 131°34'0 0.0
2018-May-10 22:01N 34°01' E 131°34'0 0.0
2018-May-10 21:28N 34°01' E 131°34'3 4.5
2018-May-10 20:55N 33°60' E 131°37'511.3
2018-May-10 20:30N 34°02' E 131°41'4 6.1
2018-May-10 19:55N 34°04' E 131°45'0 0.0
2018-May-10 19:30N 34°04' E 131°45'0 0.0
2018-May-10 18:58N 34°04' E 131°45'0 0.0
2018-May-10 18:27N 34°04' E 131°45'0 0.0
2018-May-10 18:00N 34°04' E 131°45'0 0.0
2018-May-10 17:29N 34°04' E 131°45'0 0.0
2018-May-10 16:59N 34°04' E 131°45'0 0.0
2018-May-10 16:22N 34°04' E 131°45'1 0.0
2018-May-08 22:44N 34°03' E 131°44'1 3.5
2018-May-08 22:30N 34°03' E 131°44'0 0.0
2018-May-08 22:00N 34°03' E 131°44'0 0.0
2018-May-08 21:30N 34°03' E 131°44'0 0.0
2018-May-08 21:01N 34°03' E 131°44'0 0.0
2018-May-08 20:30N 34°03' E 131°44'0 0.0
2018-May-08 20:00N 34°03' E 131°44'0 0.0
2018-May-08 19:25N 34°03' E 131°44'0 0.0
2018-May-08 19:00N 34°03' E 131°44'0 0.0
2018-May-08 18:29N 34°03' E 131°44'0 0.0
2018-May-08 18:01N 34°03' E 131°44'0 0.0
2018-May-08 17:31N 34°03' E 131°44'0 0.0
2018-May-08 17:01N 34°03' E 131°44'0 0.0
2018-May-08 16:31N 34°03' E 131°44'0 0.1
2018-May-08 16:00N 34°03' E 131°44'0 0.1
2018-May-08 15:31N 34°03' E 131°44'5 9.6
2018-May-08 15:01N 33°58' E 131°45'611.3
2018-May-08 14:31N 33°55' E 131°51'811.6
2018-May-08 13:49N 33°53' E 132°00'411.3
2018-May-08 13:28N 33°52' E 132°05'710.4
2018-May-08 12:45N 33°50' E 132°14'411.9
2018-May-08 12:24N 33°50' E 132°19'911.8
2018-May-08 11:39N 33°54' E 132°28'412.5
2018-May-08 11:20N 33°57' E 132°32'412.6
2018-May-08 11:00N 33°60' E 132°35'612.3
2018-May-08 10:30N 34°03' E 132°42'7311.5
2018-May-08 04:10N 34°32' E 134°03'912.0
2018-May-08 03:27N 34°35' E 134°13'811.8
2018-May-08 02:47N 34°38' E 134°22'611.6
2018-May-08 02:17N 34°40' E 134°28'311.6
2018-May-08 02:00N 34°42' E 134°32'611.7
2018-May-08 01:30N 34°42' E 134°39'611.5
2018-May-08 01:00N 34°43' E 134°46'3 0.7
2018-May-07 21:07N 34°44' E 134°49'1 5.4
2018-May-07 20:58N 34°43' E 134°48'2 4.8
2018-May-07 20:29N 34°43' E 134°51'0 0.0
2018-May-07 20:00N 34°43' E 134°51'0 0.0
2018-May-07 19:29N 34°43' E 134°51'0 0.0
2018-May-07 19:00N 34°43' E 134°51'0 0.0
2018-May-07 18:30N 34°43' E 134°51'0 0.0
2018-May-07 18:00N 34°43' E 134°51'0 0.0
2018-May-07 17:29N 34°43' E 134°51'0 0.0
2018-May-07 17:00N 34°43' E 134°51'0 0.0
2018-May-07 16:24N 34°43' E 134°51'0 0.0
2018-May-07 16:01N 34°43' E 134°51'0 0.0
2018-May-07 15:30N 34°43' E 134°51'0 0.0
2018-May-07 15:01N 34°43' E 134°51'0 0.0
2018-May-07 14:30N 34°43' E 134°51'0 0.0
2018-May-07 14:01N 34°43' E 134°51'0 0.0
2018-May-07 13:31N 34°43' E 134°51'0 0.0
2018-May-07 13:00N 34°43' E 134°51'0 0.0
2018-May-07 12:30N 34°43' E 134°51'0 0.0
2018-May-07 12:01N 34°43' E 134°51'0 0.0
2018-May-07 11:26N 34°43' E 134°51'0 0.0
2018-May-07 11:00N 34°43' E 134°51'0 0.0
2018-May-07 10:30N 34°43' E 134°51'0 0.0
2018-May-07 10:01N 34°43' E 134°51'0 0.1
2018-May-07 09:30N 34°43' E 134°51'4 7.1
2018-May-07 09:01N 34°39' E 134°52'510.7
2018-May-07 08:31N 34°38' E 134°58'510.8
2018-May-07 08:01N 34°36' E 135°04'612.1
2018-May-07 07:30N 34°35' E 135°12'611.4
2018-May-07 07:00N 34°33' E 135°18'5 9.4
2018-May-07 06:31N 34°31' E 135°24'0 0.0
2018-May-07 06:01N 34°31' E 135°24'0 0.0
2018-May-07 05:31N 34°31' E 135°24'0 0.0
2018-May-07 05:00N 34°31' E 135°24'0 0.0
2018-May-07 04:30N 34°31' E 135°24'0 0.0
2018-May-07 04:01N 34°31' E 135°24'0 0.0
2018-May-07 03:31N 34°31' E 135°24'0 0.0
2018-May-07 03:00N 34°31' E 135°24'0 0.9
2018-May-07 02:31N 34°32' E 135°23'0 0.5
2018-May-07 02:01N 34°32' E 135°23'0 0.0
2018-May-07 01:31N 34°32' E 135°23'0 0.1
2018-May-07 01:01N 34°32' E 135°23'0 0.0
2018-May-07 00:31N 34°32' E 135°23'0 0.0
2018-May-07 00:00N 34°32' E 135°23'0 0.1
2018-May-06 23:31N 34°32' E 135°23'0 0.0
2018-May-06 23:01N 34°32' E 135°23'0 0.0
2018-May-06 22:31N 34°32' E 135°23'0 0.0
2018-May-06 22:00N 34°32' E 135°23'0 0.0
2018-May-06 21:31N 34°32' E 135°23'0 0.0
2018-May-06 21:01N 34°32' E 135°23'0 0.0
2018-May-06 20:30N 34°32' E 135°23'0 0.0
2018-May-06 20:01N 34°32' E 135°23'0 0.0
2018-May-06 19:31N 34°32' E 135°23'0 0.0
2018-May-06 19:01N 34°32' E 135°23'0 0.0
2018-May-06 18:30N 34°32' E 135°23'0 0.0
2018-May-06 18:00N 34°32' E 135°23'0 0.0
2018-May-06 17:30N 34°32' E 135°23'0 0.0
2018-May-06 17:00N 34°32' E 135°23'0 0.0
2018-May-06 16:31N 34°32' E 135°23'0 0.0
2018-May-06 16:01N 34°32' E 135°23'0 0.0
2018-May-06 15:30N 34°32' E 135°23'0 0.0
2018-May-06 14:59N 34°32' E 135°23'0 0.0
2018-May-06 14:31N 34°32' E 135°23'0 0.1
2018-May-06 14:00N 34°32' E 135°23'0 0.1
2018-May-06 13:31N 34°32' E 135°23'0 0.0
2018-May-06 13:01N 34°32' E 135°23'0 0.0
2018-May-06 12:31N 34°32' E 135°23'0 0.0
2018-May-06 12:01N 34°32' E 135°23'0 0.0
2018-May-06 11:31N 34°32' E 135°23'0 0.0
2018-May-06 11:01N 34°32' E 135°23'0 0.0
2018-May-06 10:31N 34°32' E 135°23'0 0.0
2018-May-06 10:01N 34°32' E 135°23'0 0.0
2018-May-06 09:31N 34°32' E 135°23'0 0.0
2018-May-06 09:01N 34°32' E 135°23'0 0.0
2018-May-06 08:30N 34°32' E 135°23'0 0.0
2018-May-06 08:00N 34°32' E 135°23'0 0.0
2018-May-06 07:30N 34°32' E 135°23'0 0.0
2018-May-06 07:01N 34°32' E 135°23'0 0.0
2018-May-06 06:30N 34°32' E 135°23'0 0.0
2018-May-06 06:00N 34°32' E 135°23'0 0.0
2018-May-06 05:30N 34°32' E 135°23'0 0.0
2018-May-06 05:00N 34°32' E 135°23'0 0.0
2018-May-06 04:31N 34°32' E 135°23'0 0.1
2018-May-06 04:01N 34°32' E 135°23'0 0.0
2018-May-06 03:31N 34°32' E 135°23'0 0.0
2018-May-06 02:59N 34°32' E 135°23'0 0.1
2018-May-06 02:30N 34°32' E 135°23'3 7.0
2018-May-06 02:01N 34°34' E 135°21'  
Track history (hours):
 
Tides and Currents Weather Stations Pressure Air Temp Water Temp Dewpoint Dewpoint Depression Visibility Wind Speed Wind Dir Waves Ship Positions

Sanmanyoshi7

Last reported at 2018-May-16 01:42 UTC. Time now 2018-May-21 12:50 UTC.
Position N 34°36' E 134°16'.

Length 61 m; draft 3.5 m.

Type: Cargo ship. MMSI: 431007715.

Date/timePositionNaut miles runAvg speedWind from/ knotsBaromVisibWave heightAir tempDewpointWater temp
2018-May-16 01:42N 34°36' E 134°16'1211.9
2018-May-16 00:42N 34°41' E 134°30'212.2
2018-May-16 00:30N 34°42' E 134°32'612.0
2018-May-16 00:00N 34°42' E 134°40'7 1.6
2018-May-15 19:30N 34°43' E 134°48'2 0.4
2018-May-15 14:20N 34°43' E 134°51'0 0.0
2018-May-15 14:00N 34°43' E 134°51'0 0.0
2018-May-15 13:30N 34°43' E 134°51'0 0.0
2018-May-15 13:00N 34°43' E 134°51'0 0.0
2018-May-15 12:30N 34°43' E 134°51'0 0.0
2018-May-15 11:58N 34°43' E 134°51'0 0.0
2018-May-15 11:30N 34°43' E 134°51'0 0.0
2018-May-15 11:00N 34°43' E 134°51'0 0.0
2018-May-15 10:30N 34°43' E 134°51'0 0.0
2018-May-15 09:59N 34°43' E 134°51'0 0.0
2018-May-15 09:30N 34°43' E 134°51'0 0.0
2018-May-15 09:00N 34°43' E 134°51'0 0.0
2018-May-15 08:30N 34°43' E 134°51'0 0.0
2018-May-15 08:00N 34°43' E 134°51'1 1.8
2018-May-15 07:30N 34°42' E 134°50'510.1
2018-May-15 07:00N 34°38' E 134°54'611.2
2018-May-15 06:30N 34°38' E 135°01'5 9.2
2018-May-15 06:01N 34°37' E 135°06'611.6
2018-May-15 05:30N 34°37' E 135°13'611.3
2018-May-15 05:00N 34°38' E 135°20'5 9.5
2018-May-15 04:31N 34°40' E 135°26'0 0.0
2018-May-15 04:00N 34°40' E 135°26'0 0.0
2018-May-15 03:30N 34°40' E 135°26'0 0.0
2018-May-15 03:00N 34°40' E 135°26'0 0.0
2018-May-15 02:30N 34°40' E 135°26'0 0.0
2018-May-15 02:00N 34°40' E 135°26'0 0.0
2018-May-15 01:30N 34°40' E 135°26'1 2.2
2018-May-15 01:00N 34°39' E 135°25'2 3.9
2018-May-15 00:30N 34°40' E 135°22'0 0.0
2018-May-15 00:00N 34°40' E 135°22'0 0.0
2018-May-14 23:30N 34°40' E 135°22'0 0.0
2018-May-14 23:00N 34°40' E 135°22'0 0.0
2018-May-14 22:30N 34°40' E 135°22'0 0.0
2018-May-14 22:00N 34°40' E 135°22'0 0.0
2018-May-14 21:30N 34°40' E 135°22'0 0.0
2018-May-14 21:00N 34°40' E 135°22'3 6.7
2018-May-14 20:30N 34°38' E 135°19'510.3
2018-May-14 20:00N 34°36' E 135°13'611.3
2018-May-14 19:30N 34°35' E 135°06'612.4
2018-May-14 19:00N 34°37' E 134°59'612.5
2018-May-14 18:30N 34°34' E 134°52'611.7
2018-May-14 18:00N 34°32' E 134°45'611.5
2018-May-14 17:30N 34°30' E 134°39'611.3
2018-May-14 17:00N 34°28' E 134°33'611.4
2018-May-14 16:30N 34°26' E 134°26'711.4
2018-May-14 15:52N 34°24' E 134°18'412.2
2018-May-14 15:30N 34°24' E 134°12'7811.4
2018-May-14 08:38N 34°10' E 132°39'211.2
2018-May-14 08:30N 34°10' E 132°38'5 9.5
2018-May-14 08:00N 34°12' E 132°32'2 3.5
2018-May-14 07:30N 34°14' E 132°32'0 0.0
2018-May-14 07:00N 34°14' E 132°32'0 0.1
2018-May-14 06:30N 34°14' E 132°32'0 0.0
2018-May-14 06:01N 34°14' E 132°32'0 0.1
2018-May-14 05:31N 34°14' E 132°32'0 0.1
2018-May-14 05:00N 34°14' E 132°32'0 0.0
2018-May-14 04:30N 34°14' E 132°32'0 0.0
2018-May-14 04:00N 34°14' E 132°32'0 0.1
2018-May-14 03:31N 34°14' E 132°32'0 0.1
2018-May-14 03:00N 34°14' E 132°32'0 0.0
2018-May-14 02:31N 34°14' E 132°32'1 2.2
2018-May-14 02:01N 34°15' E 132°33'0 0.0
2018-May-14 01:30N 34°15' E 132°33'0 0.0
2018-May-14 01:00N 34°15' E 132°33'0 0.0
2018-May-14 00:30N 34°15' E 132°33'0 0.0
2018-May-14 00:01N 34°15' E 132°33'0 0.0
2018-May-13 23:31N 34°15' E 132°33'0 0.0
2018-May-13 23:00N 34°15' E 132°33'0 0.0
2018-May-13 22:30N 34°15' E 132°33'0 0.0
2018-May-13 22:00N 34°15' E 132°33'0 0.0
2018-May-13 21:30N 34°15' E 132°33'0 0.0
2018-May-13 21:00N 34°15' E 132°33'0 0.0
2018-May-13 20:30N 34°15' E 132°33'0 0.0
2018-May-13 20:00N 34°15' E 132°33'0 0.0
2018-May-13 19:30N 34°15' E 132°33'0 0.0
2018-May-13 19:01N 34°15' E 132°33'0 0.0
2018-May-13 18:31N 34°15' E 132°33'0 0.0
2018-May-13 17:59N 34°15' E 132°33'0 0.0
2018-May-13 17:30N 34°15' E 132°33'0 0.0
2018-May-13 17:00N 34°15' E 132°33'0 0.0
2018-May-13 16:31N 34°15' E 132°33'0 0.0
2018-May-13 16:00N 34°15' E 132°33'0 0.0
2018-May-13 15:30N 34°15' E 132°33'0 0.0
2018-May-13 15:00N 34°15' E 132°33'0 0.0
2018-May-13 14:30N 34°15' E 132°33'0 0.0
2018-May-13 13:58N 34°15' E 132°33'0 0.0
2018-May-13 13:30N 34°15' E 132°33'0 0.0
2018-May-13 13:01N 34°15' E 132°33'0 0.0
2018-May-13 12:30N 34°15' E 132°33'0 0.0
2018-May-13 12:00N 34°15' E 132°33'0 0.0
2018-May-13 11:30N 34°15' E 132°33'0 0.0
2018-May-13 11:01N 34°15' E 132°33'0 0.0
2018-May-13 10:30N 34°15' E 132°33'0 0.0
2018-May-13 10:00N 34°15' E 132°33'0 0.0
2018-May-13 09:30N 34°15' E 132°33'0 0.0
2018-May-13 09:00N 34°15' E 132°33'0 0.0
2018-May-13 08:30N 34°15' E 132°33'0 0.0
2018-May-13 08:00N 34°15' E 132°33'0 0.0
2018-May-13 07:31N 34°15' E 132°33'0 0.0
2018-May-13 07:00N 34°15' E 132°33'0 0.0
2018-May-13 06:30N 34°15' E 132°33'0 0.0
2018-May-13 06:00N 34°15' E 132°33'0 0.0
2018-May-13 05:30N 34°15' E 132°33'0 0.0
2018-May-13 05:00N 34°15' E 132°33'0 0.0
2018-May-13 04:30N 34°15' E 132°33'0 0.0
2018-May-13 04:01N 34°15' E 132°33'0 0.0
2018-May-13 03:31N 34°15' E 132°33'0 0.0
2018-May-13 03:01N 34°15' E 132°33'0 0.0
2018-May-13 02:31N 34°15' E 132°33'0 0.0
2018-May-13 02:00N 34°15' E 132°33'0 0.0
2018-May-13 01:30N 34°15' E 132°33'0 0.0
2018-May-13 01:00N 34°15' E 132°33'0 0.0
2018-May-13 00:30N 34°15' E 132°33'0 0.0
2018-May-13 00:00N 34°15' E 132°33'0 0.0
2018-May-12 23:31N 34°15' E 132°33'0 0.0
2018-May-12 23:00N 34°15' E 132°33'0 0.0
2018-May-12 22:30N 34°15' E 132°33'0 0.0
2018-May-12 22:00N 34°15' E 132°33'0 0.0
2018-May-12 21:30N 34°15' E 132°33'0 0.0
2018-May-12 21:00N 34°15' E 132°33'0 0.0
2018-May-12 20:30N 34°15' E 132°33'0 0.0
2018-May-12 20:01N 34°15' E 132°33'0 0.0
2018-May-12 19:31N 34°15' E 132°33'0 0.0
2018-May-12 18:59N 34°15' E 132°33'0 0.0
2018-May-12 18:30N 34°15' E 132°33'0 0.0
2018-May-12 18:00N 34°15' E 132°33'0 0.0
2018-May-12 17:30N 34°15' E 132°33'0 0.0
2018-May-12 17:00N 34°15' E 132°33'0 0.0
2018-May-12 16:30N 34°15' E 132°33'0 0.0
2018-May-12 16:01N 34°15' E 132°33'0 0.0
2018-May-12 15:30N 34°15' E 132°33'0 0.0
2018-May-12 15:01N 34°15' E 132°33'0 0.0
2018-May-12 14:30N 34°15' E 132°33'0 0.0
2018-May-12 14:00N 34°15' E 132°33'0 0.0
2018-May-12 13:30N 34°15' E 132°33'0 0.0
2018-May-12 13:00N 34°15' E 132°33'0 0.0
2018-May-12 12:30N 34°15' E 132°33'0 0.0
2018-May-12 12:00N 34°15' E 132°33'0 0.0
2018-May-12 11:31N 34°15' E 132°33'0 0.0
2018-May-12 11:01N 34°15' E 132°33'0 0.0
2018-May-12 10:31N 34°15' E 132°33'0 0.0
2018-May-12 10:01N 34°15' E 132°33'0 0.0
2018-May-12 09:30N 34°15' E 132°33'0 0.0
2018-May-12 09:01N 34°15' E 132°33'0 0.0
2018-May-12 08:31N 34°15' E 132°33'0 0.0
2018-May-12 08:01N 34°15' E 132°33'0 0.0
2018-May-12 07:30N 34°15' E 132°33'0 0.0
2018-May-12 07:01N 34°15' E 132°33'0 0.0
2018-May-12 06:31N 34°15' E 132°33'0 0.0
2018-May-12 06:00N 34°15' E 132°33'0 0.0
2018-May-12 05:30N 34°15' E 132°33'0 0.0
2018-May-12 05:00N 34°15' E 132°33'0 0.0
2018-May-12 04:31N 34°15' E 132°33'0 0.0
2018-May-12 04:00N 34°15' E 132°33'0 0.0
2018-May-12 03:30N 34°15' E 132°33'0 0.0
2018-May-12 03:00N 34°15' E 132°33'0 0.0
2018-May-12 02:30N 34°15' E 132°33'0 0.0
2018-May-12 02:00N 34°15' E 132°33'0 0.0
2018-May-12 01:31N 34°15' E 132°33'0 0.0
2018-May-12 01:00N 34°15' E 132°33'0 0.0
2018-May-12 00:30N 34°15' E 132°33'0 0.0
2018-May-12 00:01N 34°15' E 132°33'0 0.0
2018-May-11 23:30N 34°15' E 132°33'0 0.0
2018-May-11 23:01N 34°15' E 132°33'0 0.0
2018-May-11 22:28N 34°15' E 132°33'0 0.0
2018-May-11 21:59N 34°15' E 132°33'0 0.0
2018-May-11 21:30N 34°15' E 132°33'0 0.0
2018-May-11 21:00N 34°15' E 132°33'0 0.0
2018-May-11 20:31N 34°15' E 132°33'0 0.0
2018-May-11 20:00N 34°15' E 132°33'0 0.0
2018-May-11 19:31N 34°15' E 132°33'0 0.0
2018-May-11 19:00N 34°15' E 132°33'0 0.0
2018-May-11 18:30N 34°15' E 132°33'0 0.0
2018-May-11 18:00N 34°15' E 132°33'0 0.0
2018-May-11 17:30N 34°15' E 132°33'0 0.0
2018-May-11 17:00N 34°15' E 132°33'0 0.0
2018-May-11 16:30N 34°15' E 132°33'0 0.0
2018-May-11 16:00N 34°15' E 132°33'0 0.0
2018-May-11 15:30N 34°15' E 132°33'0 0.0
2018-May-11 15:00N 34°15' E 132°33'0 0.0
2018-May-11 14:30N 34°15' E 132°33'0 0.0
2018-May-11 13:58N 34°15' E 132°33'0 0.0
2018-May-11 13:31N 34°15' E 132°33'0 0.0
2018-May-11 13:00N 34°15' E 132°33'0 0.0
2018-May-11 12:30N 34°15' E 132°33'0 0.0
2018-May-11 12:01N 34°15' E 132°33'0 0.0
2018-May-11 11:31N 34°15' E 132°33'0 0.0
2018-May-11 11:00N 34°15' E 132°33'0 0.0
2018-May-11 10:31N 34°15' E 132°33'0 0.0
2018-May-11 10:01N 34°15' E 132°33'0 0.0
2018-May-11 09:31N 34°15' E 132°33'0 0.0
2018-May-11 09:00N 34°15' E 132°33'0 0.0
2018-May-11 08:30N 34°15' E 132°33'0 0.0
2018-May-11 08:00N 34°15' E 132°33'0 0.0
2018-May-11 07:30N 34°15' E 132°33'0 0.0
2018-May-11 07:00N 34°15' E 132°33'0 0.0
2018-May-11 06:30N 34°15' E 132°33'4 8.3
2018-May-11 06:00N 34°11' E 132°30'610.6
2018-May-11 05:26N 34°06' E 132°26'511.8
2018-May-11 05:00N 34°03' E 132°20'611.7
2018-May-11 04:30N 34°00' E 132°15'710.9
2018-May-11 03:52N 33°54' E 132°10'511.1
2018-May-11 03:27N 33°50' E 132°09'510.7
2018-May-11 03:01N 33°52' E 132°04'611.5
2018-May-11 02:30N 33°54' E 131°57'611.8
2018-May-11 01:57N 33°55' E 131°50'511.7
2018-May-11 01:30N 33°57' E 131°44'611.9
2018-May-11 01:00N 33°59' E 131°37'3 6.1
2018-May-11 00:28N 34°01' E 131°34'0 0.0
2018-May-10 23:48N 34°01' E 131°34'0 0.0
2018-May-10 23:21N 34°01' E 131°34'0 0.0
2018-May-10 22:57N 34°01' E 131°34'0 0.0
2018-May-10 22:30N 34°01' E 131°34'0 0.0
2018-May-10 22:01N 34°01' E 131°34'0 0.0
2018-May-10 21:28N 34°01' E 131°34'3 4.5
2018-May-10 20:55N 33°60' E 131°37'511.3
2018-May-10 20:30N 34°02' E 131°41'4 6.1
2018-May-10 19:55N 34°04' E 131°45'0 0.0
2018-May-10 19:30N 34°04' E 131°45'0 0.0
2018-May-10 18:58N 34°04' E 131°45'0 0.0
2018-May-10 18:27N 34°04' E 131°45'0 0.0
2018-May-10 18:00N 34°04' E 131°45'0 0.0
2018-May-10 17:29N 34°04' E 131°45'0 0.0
2018-May-10 16:59N 34°04' E 131°45'0 0.0
2018-May-10 16:22N 34°04' E 131°45'1 0.0
2018-May-08 22:44N 34°03' E 131°44'1 3.5
2018-May-08 22:30N 34°03' E 131°44'0 0.0
2018-May-08 22:00N 34°03' E 131°44'0 0.0
2018-May-08 21:30N 34°03' E 131°44'0 0.0
2018-May-08 21:01N 34°03' E 131°44'0 0.0
2018-May-08 20:30N 34°03' E 131°44'0 0.0
2018-May-08 20:00N 34°03' E 131°44'0 0.0
2018-May-08 19:25N 34°03' E 131°44'0 0.0
2018-May-08 19:00N 34°03' E 131°44'0 0.0
2018-May-08 18:29N 34°03' E 131°44'0 0.0
2018-May-08 18:01N 34°03' E 131°44'0 0.0
2018-May-08 17:31N 34°03' E 131°44'0 0.0
2018-May-08 17:01N 34°03' E 131°44'0 0.0
2018-May-08 16:31N 34°03' E 131°44'0 0.1
2018-May-08 16:00N 34°03' E 131°44'0 0.1
2018-May-08 15:31N 34°03' E 131°44'5 9.6
2018-May-08 15:01N 33°58' E 131°45'611.3
2018-May-08 14:31N 33°55' E 131°51'811.6
2018-May-08 13:49N 33°53' E 132°00'411.3
2018-May-08 13:28N 33°52' E 132°05'710.4
2018-May-08 12:45N 33°50' E 132°14'411.9
2018-May-08 12:24N 33°50' E 132°19'911.8
2018-May-08 11:39N 33°54' E 132°28'412.5
2018-May-08 11:20N 33°57' E 132°32'412.6
2018-May-08 11:00N 33°60' E 132°35'612.3
2018-May-08 10:30N 34°03' E 132°42'7311.5
2018-May-08 04:10N 34°32' E 134°03'912.0
2018-May-08 03:27N 34°35' E 134°13'811.8
2018-May-08 02:47N 34°38' E 134°22'611.6
2018-May-08 02:17N 34°40' E 134°28'311.6
2018-May-08 02:00N 34°42' E 134°32'611.7
2018-May-08 01:30N 34°42' E 134°39'611.5
2018-May-08 01:00N 34°43' E 134°46'3 0.7
2018-May-07 21:07N 34°44' E 134°49'1 5.4
2018-May-07 20:58N 34°43' E 134°48'2 4.8
2018-May-07 20:29N 34°43' E 134°51'0 0.0
2018-May-07 20:00N 34°43' E 134°51'0 0.0
2018-May-07 19:29N 34°43' E 134°51'0 0.0
2018-May-07 19:00N 34°43' E 134°51'0 0.0
2018-May-07 18:30N 34°43' E 134°51'0 0.0
2018-May-07 18:00N 34°43' E 134°51'0 0.0
2018-May-07 17:29N 34°43' E 134°51'0 0.0
2018-May-07 17:00N 34°43' E 134°51'0 0.0
2018-May-07 16:24N 34°43' E 134°51'0 0.0
2018-May-07 16:01N 34°43' E 134°51'0 0.0
2018-May-07 15:30N 34°43' E 134°51'0 0.0
2018-May-07 15:01N 34°43' E 134°51'0 0.0
2018-May-07 14:30N 34°43' E 134°51'0 0.0
2018-May-07 14:01N 34°43' E 134°51'0 0.0
2018-May-07 13:31N 34°43' E 134°51'0 0.0
2018-May-07 13:00N 34°43' E 134°51'0 0.0
2018-May-07 12:30N 34°43' E 134°51'0 0.0
2018-May-07 12:01N 34°43' E 134°51'0 0.0
2018-May-07 11:26N 34°43' E 134°51'0 0.0
2018-May-07 11:00N 34°43' E 134°51'0 0.0
2018-May-07 10:30N 34°43' E 134°51'0 0.0
2018-May-07 10:01N 34°43' E 134°51'0 0.1
2018-May-07 09:30N 34°43' E 134°51'4 7.1
2018-May-07 09:01N 34°39' E 134°52'510.7
2018-May-07 08:31N 34°38' E 134°58'510.8
2018-May-07 08:01N 34°36' E 135°04'612.1
2018-May-07 07:30N 34°35' E 135°12'611.4
2018-May-07 07:00N 34°33' E 135°18'5 9.4
2018-May-07 06:31N 34°31' E 135°24'0 0.0
2018-May-07 06:01N 34°31' E 135°24'0 0.0
2018-May-07 05:31N 34°31' E 135°24'0 0.0
2018-May-07 05:00N 34°31' E 135°24'0 0.0
2018-May-07 04:30N 34°31' E 135°24'0 0.0
2018-May-07 04:01N 34°31' E 135°24'0 0.0
2018-May-07 03:31N 34°31' E 135°24'0 0.0
2018-May-07 03:00N 34°31' E 135°24'0 0.9
2018-May-07 02:31N 34°32' E 135°23'0 0.5
2018-May-07 02:01N 34°32' E 135°23'0 0.0
2018-May-07 01:31N 34°32' E 135°23'0 0.1
2018-May-07 01:01N 34°32' E 135°23'0 0.0
2018-May-07 00:31N 34°32' E 135°23'0 0.0
2018-May-07 00:00N 34°32' E 135°23'0 0.1
2018-May-06 23:31N 34°32' E 135°23'0 0.0
2018-May-06 23:01N 34°32' E 135°23'0 0.0
2018-May-06 22:31N 34°32' E 135°23'0 0.0
2018-May-06 22:00N 34°32' E 135°23'0 0.0
2018-May-06 21:31N 34°32' E 135°23'0 0.0
2018-May-06 21:01N 34°32' E 135°23'0 0.0
2018-May-06 20:30N 34°32' E 135°23'0 0.0
2018-May-06 20:01N 34°32' E 135°23'0 0.0
2018-May-06 19:31N 34°32' E 135°23'0 0.0
2018-May-06 19:01N 34°32' E 135°23'0 0.0
2018-May-06 18:30N 34°32' E 135°23'0 0.0
2018-May-06 18:00N 34°32' E 135°23'0 0.0
2018-May-06 17:30N 34°32' E 135°23'0 0.0
2018-May-06 17:00N 34°32' E 135°23'0 0.0
2018-May-06 16:31N 34°32' E 135°23'0 0.0
2018-May-06 16:01N 34°32' E 135°23'0 0.0
2018-May-06 15:30N 34°32' E 135°23'0 0.0
2018-May-06 14:59N 34°32' E 135°23'0 0.0
2018-May-06 14:31N 34°32' E 135°23'0 0.1
2018-May-06 14:00N 34°32' E 135°23'0 0.1
2018-May-06 13:31N 34°32' E 135°23'0 0.0
2018-May-06 13:01N 34°32' E 135°23'0 0.0
2018-May-06 12:31N 34°32' E 135°23'0 0.0
2018-May-06 12:01N 34°32' E 135°23'0 0.0
2018-May-06 11:31N 34°32' E 135°23'0 0.0
2018-May-06 11:01N 34°32' E 135°23'0 0.0
2018-May-06 10:31N 34°32' E 135°23'0 0.0
2018-May-06 10:01N 34°32' E 135°23'0 0.0
2018-May-06 09:31N 34°32' E 135°23'0 0.0
2018-May-06 09:01N 34°32' E 135°23'0 0.0
2018-May-06 08:30N 34°32' E 135°23'0 0.0
2018-May-06 08:00N 34°32' E 135°23'0 0.0
2018-May-06 07:30N 34°32' E 135°23'0 0.0
2018-May-06 07:01N 34°32' E 135°23'0 0.0
2018-May-06 06:30N 34°32' E 135°23'0 0.0
2018-May-06 06:00N 34°32' E 135°23'0 0.0
2018-May-06 05:30N 34°32' E 135°23'0 0.0
2018-May-06 05:00N 34°32' E 135°23'0 0.0
2018-May-06 04:31N 34°32' E 135°23'0 0.1
2018-May-06 04:01N 34°32' E 135°23'0 0.0
2018-May-06 03:31N 34°32' E 135°23'0 0.0
2018-May-06 02:59N 34°32' E 135°23'0 0.1
2018-May-06 02:30N 34°32' E 135°23'3 7.0
2018-May-06 02:01N 34°34' E 135°21'  

Dump ship's entire track history